Bookmark and Share
Track history (hours):
 

M. Luther

More information available from US FCC via Universal Licensing System and Coast Guard Vessel Documentation Center.

Last reported at 2014-Apr-13 00:20 UTC. Time now 2014-Apr-16 22:20 UTC.
Position N 47°33' W 122°21'.

Length 28 m; draft 4.1 m.

Type: Tow > 200 m length. MMSI: 367070410.

NotesDate/timePositionNaut miles runAvg speedWind from/ knotsBaromVisibWave heightAir tempDewpointWater temp
2014-Apr-13 00:20N 47°33' W 122°21'2 2.5
2014-Apr-12 23:33N 47°35' W 122°22'5 5.0
2014-Apr-12 22:33N 47°38' W 122°27'8 7.9
2014-Apr-12 21:34N 47°46' W 122°27'5 7.8
2014-Apr-12 20:52N 47°51' W 122°29'3 8.4
2014-Apr-12 20:33N 47°54' W 122°30'0 7.2
2014-Apr-12 20:32N 47°54' W 122°30'8 8.3
2014-Apr-12 19:33N 48°00' W 122°38'9 8.2
2014-Apr-12 18:29N 48°08' W 122°43'7 7.2
2014-Apr-12 17:28N 48°15' W 122°49'6 7.1
2014-Apr-12 16:33N 48°21' W 122°46'8 8.0
2014-Apr-12 15:33N 48°29' W 122°45'9 8.8
2014-Apr-12 14:33N 48°38' W 122°45'7 7.3
2014-Apr-12 13:33N 48°45' W 122°47'7 7.5
2014-Apr-12 12:34N 48°49' W 122°57'8 7.5
2014-Apr-12 11:33N 48°53' W 123°06'7 7.2
2014-Apr-12 10:34N 48°58' W 123°14'7 7.0
2014-Apr-12 09:33N 49°03' W 123°21'5 4.6
2014-Apr-12 08:33N 49°07' W 123°16'4 4.3
2014-Apr-12 07:33N 49°07' W 123°10'6 6.0
2014-Apr-12 06:33N 49°09' W 123°01'1 0.8
2014-Apr-12 05:33N 49°09' W 123°00'0 0.0
2014-Apr-12 04:33N 49°09' W 123°00'0 0.0
2014-Apr-12 03:27N 49°09' W 123°00'0 0.0
2014-Apr-12 02:33N 49°09' W 123°00'0 0.0
2014-Apr-12 01:33N 49°09' W 123°00'0 0.0
2014-Apr-12 00:33N 49°09' W 123°00'0 0.0
2014-Apr-11 23:33N 49°09' W 123°00'0 0.0
2014-Apr-11 22:33N 49°09' W 123°00'0 0.0
2014-Apr-11 21:32N 49°09' W 123°00'0 0.0
2014-Apr-11 20:32N 49°09' W 123°00'0 0.0
2014-Apr-11 19:32N 49°09' W 123°00'0 0.0
2014-Apr-11 18:32N 49°09' W 123°00'0 0.0
2014-Apr-11 17:32N 49°09' W 123°00'0 0.0
2014-Apr-11 16:32N 49°09' W 123°00'0 0.0
2014-Apr-11 15:32N 49°09' W 123°00'0 0.0
2014-Apr-11 14:32N 49°09' W 123°00'0 0.0
2014-Apr-11 13:32N 49°09' W 123°00'0 0.0
2014-Apr-11 12:32N 49°09' W 123°00'0 0.0
2014-Apr-11 11:32N 49°09' W 123°00'0 0.0
2014-Apr-11 10:32N 49°09' W 123°00'0 0.0
2014-Apr-11 09:32N 49°09' W 123°00'0 0.0
2014-Apr-11 08:29N 49°09' W 123°00'0 0.0
2014-Apr-11 07:32N 49°09' W 123°00'0 0.0
2014-Apr-11 06:32N 49°09' W 123°00'0 0.0
2014-Apr-11 05:32N 49°09' W 123°00'0 0.0
2014-Apr-11 04:29N 49°09' W 123°00'0 0.0
2014-Apr-11 03:29N 49°09' W 123°00'0 0.0
2014-Apr-11 02:32N 49°09' W 123°00'0 0.0
2014-Apr-11 01:32N 49°09' W 123°00'0 0.0
2014-Apr-11 00:32N 49°09' W 123°00'0 0.0
2014-Apr-10 23:32N 49°09' W 123°00'0 0.0
2014-Apr-10 22:32N 49°09' W 123°00'0 0.0
2014-Apr-10 21:32N 49°09' W 123°00'0 0.0
2014-Apr-10 20:32N 49°09' W 123°00'0 0.0
2014-Apr-10 19:32N 49°09' W 123°00'0 0.0
2014-Apr-10 18:29N 49°09' W 123°00'0 0.0
2014-Apr-10 17:32N 49°09' W 123°00'0 0.0
2014-Apr-10 16:32N 49°09' W 123°00'0 0.0
2014-Apr-10 15:32N 49°09' W 123°00'0 0.0
2014-Apr-10 14:32N 49°09' W 123°00'0 0.0
2014-Apr-10 13:32N 49°09' W 123°00'0 0.0
2014-Apr-10 12:32N 49°09' W 123°00'0 0.0
2014-Apr-10 11:32N 49°09' W 123°00'0 0.0
2014-Apr-10 10:32N 49°09' W 123°00'0 0.0
2014-Apr-10 09:32N 49°09' W 123°00'0 0.0
2014-Apr-10 08:32N 49°09' W 123°00'0 0.0
2014-Apr-10 07:31N 49°09' W 123°00'0 0.0
2014-Apr-10 06:31N 49°09' W 123°00'0 0.0
2014-Apr-10 05:31N 49°09' W 123°00'0 0.0
2014-Apr-10 04:28N 49°09' W 123°00'0 0.0
2014-Apr-10 03:31N 49°09' W 123°00'0 0.0
2014-Apr-10 02:31N 49°09' W 123°00'0 0.0
2014-Apr-10 01:31N 49°09' W 123°00'0 0.0
2014-Apr-10 00:28N 49°09' W 123°00'0 0.0
2014-Apr-09 23:28N 49°09' W 123°00'0 0.0
2014-Apr-09 22:28N 49°09' W 123°00'0 0.0
2014-Apr-09 21:25N 49°09' W 123°00'0 0.0
2014-Apr-09 20:28N 49°09' W 123°00'0 0.0
2014-Apr-09 19:31N 49°09' W 123°00'0 0.0
2014-Apr-09 18:31N 49°09' W 123°00'0 0.0
2014-Apr-09 17:31N 49°09' W 123°00'0 0.0
2014-Apr-09 16:28N 49°09' W 123°00'0 0.0
2014-Apr-09 15:31N 49°09' W 123°00'0 0.1
2014-Apr-09 14:32N 49°09' W 123°00'6 5.6
2014-Apr-09 13:33N 49°06' W 123°08'6 6.2
2014-Apr-09 12:33N 49°07' W 123°17'4 3.9
2014-Apr-09 11:33N 49°03' W 123°17'5 5.1
2014-Apr-09 10:33N 48°59' W 123°12'7 6.6
2014-Apr-09 09:33N 48°55' W 123°04'7 6.8
2014-Apr-09 08:33N 48°51' W 122°56'6 6.5
2014-Apr-09 07:33N 48°47' W 122°49'7 7.1
2014-Apr-09 06:33N 48°41' W 122°42'8 8.4
2014-Apr-09 05:33N 48°32' W 122°44'8 8.3
2014-Apr-09 04:33N 48°24' W 122°44'8 7.0
2014-Apr-09 03:27N 48°17' W 122°47'14 7.0
2014-Apr-09 01:25N 48°04' W 122°38'4 8.4
2014-Apr-09 00:54N 47°60' W 122°35'3 8.4
2014-Apr-09 00:33N 47°57' W 122°33'0 8.3
2014-Apr-09 00:30N 47°57' W 122°32'7 7.6
2014-Apr-08 23:33N 47°51' W 122°27'0 7.5
2014-Apr-08 23:30N 47°50' W 122°27'8 8.1
2014-Apr-08 22:33N 47°43' W 122°26'1 8.3
2014-Apr-08 22:30N 47°42' W 122°26'7 7.2
2014-Apr-08 21:33N 47°36' W 122°22'0 5.5
2014-Apr-08 21:30N 47°36' W 122°22'3 2.6
2014-Apr-08 20:28N 47°33' W 122°21'0 0.0
2014-Apr-08 20:10N 47°33' W 122°21'0 0.0
2014-Apr-08 19:31N 47°33' W 122°21'0 0.0
2014-Apr-08 19:25N 47°33' W 122°21'  
2014-Apr-06 08:21N 47°33' W 122°21'0 0.0
2014-Apr-06 08:09N 47°33' W 122°21'0 0.0
2014-Apr-06 07:30N 47°33' W 122°21'0 0.8
2014-Apr-06 07:24N 47°33' W 122°21'2 2.1
2014-Apr-06 06:33N 47°35' W 122°22'1 6.8
2014-Apr-06 06:29N 47°35' W 122°22'2 3.0
2014-Apr-06 05:49N 47°37' W 122°24'1 5.6
2014-Apr-06 05:33N 47°38' W 122°26'6 5.7
2014-Apr-06 04:33N 47°43' W 122°28'0 6.0
2014-Apr-06 04:29N 47°44' W 122°28'6 6.5
2014-Apr-06 03:33N 47°50' W 122°28'3 7.1
2014-Apr-06 03:08N 47°53' W 122°30'4 6.8
2014-Apr-06 02:33N 47°56' W 122°32'0 7.8
2014-Apr-06 02:32N 47°56' W 122°33'8 7.5
2014-Apr-06 01:32N 48°02' W 122°39'7 7.4
2014-Apr-06 00:32N 48°09' W 122°44'7 6.7
2014-Apr-05 23:30N 48°15' W 122°49'6 6.5
2014-Apr-05 22:33N 48°21' W 122°47'8 7.7
2014-Apr-05 21:33N 48°29' W 122°45'9 8.7
2014-Apr-05 20:33N 48°37' W 122°45'7 7.2
2014-Apr-05 19:33N 48°44' W 122°47'7 7.2
2014-Apr-05 18:33N 48°48' W 122°56'7 7.1
2014-Apr-05 17:33N 48°53' W 123°05'6 6.5
2014-Apr-05 16:33N 48°57' W 123°12'6 6.4
2014-Apr-05 15:33N 49°01' W 123°19'5 5.0
2014-Apr-05 14:33N 49°06' W 123°18'6 5.6
2014-Apr-05 13:33N 49°07' W 123°10'6 6.4
2014-Apr-05 12:33N 49°09' W 123°01'0 0.3
2014-Apr-05 11:31N 49°09' W 123°00'0 0.0
2014-Apr-05 10:31N 49°09' W 123°00'0 0.0
2014-Apr-05 09:31N 49°09' W 123°00'0 0.0
2014-Apr-05 08:31N 49°09' W 123°00'0 0.0
2014-Apr-05 07:28N 49°09' W 123°00'0 0.0
2014-Apr-05 06:31N 49°09' W 123°00'0 0.0
2014-Apr-05 05:31N 49°09' W 123°00'0 0.0
2014-Apr-05 04:31N 49°09' W 123°00'0 0.0
2014-Apr-05 03:28N 49°09' W 123°00'0 0.0
2014-Apr-05 02:31N 49°09' W 123°00'0 0.0
2014-Apr-05 01:31N 49°09' W 123°00'0 0.0
2014-Apr-05 00:31N 49°09' W 123°00'0 0.0
2014-Apr-04 23:31N 49°09' W 123°00'0 0.0
2014-Apr-04 22:31N 49°09' W 123°00'0 0.0
2014-Apr-04 21:31N 49°09' W 123°00'0 0.0
2014-Apr-04 20:31N 49°09' W 123°00'0 0.0
2014-Apr-04 19:31N 49°09' W 123°00'0 0.0
2014-Apr-04 18:31N 49°09' W 123°00'0 0.0
2014-Apr-04 17:31N 49°09' W 123°00'0 0.0
2014-Apr-04 16:31N 49°09' W 123°00'0 0.0
2014-Apr-04 15:31N 49°09' W 123°00'0 0.0
2014-Apr-04 14:25N 49°09' W 123°00'0 0.0
2014-Apr-04 13:28N 49°09' W 123°00'0 0.0
2014-Apr-04 12:31N 49°09' W 123°00'0 0.0
2014-Apr-04 11:31N 49°09' W 123°00'0 0.0
2014-Apr-04 10:31N 49°09' W 123°00'0 0.0
2014-Apr-04 09:28N 49°09' W 123°00'0 0.0
2014-Apr-04 08:31N 49°09' W 123°00'0 0.0
2014-Apr-04 07:31N 49°09' W 123°00'0 0.0
2014-Apr-04 06:31N 49°09' W 123°00'0 0.0
2014-Apr-04 05:31N 49°09' W 123°00'0 0.0
2014-Apr-04 04:31N 49°09' W 123°00'0 0.0
2014-Apr-04 03:31N 49°09' W 123°00'0 0.0
2014-Apr-04 02:34N 49°09' W 123°00'0 0.0
2014-Apr-04 01:33N 49°09' W 123°00'0 0.0
2014-Apr-04 00:33N 49°09' W 123°00'0 0.0
2014-Apr-03 23:33N 49°09' W 123°00'0 0.0
2014-Apr-03 22:33N 49°09' W 123°00'0 0.0
2014-Apr-03 21:30N 49°09' W 123°00'0 0.0
2014-Apr-03 20:30N 49°09' W 123°00'0 0.0
2014-Apr-03 19:30N 49°09' W 123°00'0 0.0
2014-Apr-03 18:33N 49°09' W 123°00'0 0.0
2014-Apr-03 17:27N 49°09' W 123°00'0 0.0
2014-Apr-03 16:27N 49°09' W 123°00'0 0.0
2014-Apr-03 15:30N 49°09' W 123°00'0 0.0
2014-Apr-03 14:30N 49°09' W 123°00'0 0.0
2014-Apr-03 13:33N 49°09' W 123°00'0 0.0
2014-Apr-03 12:30N 49°09' W 123°00'0 0.0
2014-Apr-03 11:30N 49°09' W 123°00'0 0.0
2014-Apr-03 10:30N 49°09' W 123°00'0 0.0
2014-Apr-03 09:33N 49°09' W 123°00'0 0.0
2014-Apr-03 08:33N 49°09' W 123°00'0 0.0
2014-Apr-03 07:33N 49°09' W 123°00'0 0.0
2014-Apr-03 06:33N 49°09' W 123°00'0 0.0
2014-Apr-03 05:33N 49°09' W 123°00'0 0.0
2014-Apr-03 04:33N 49°09' W 123°00'0 0.0
2014-Apr-03 03:30N 49°09' W 123°00'0 0.0
2014-Apr-03 02:30N 49°09' W 123°00'0 0.0
2014-Apr-03 01:30N 49°09' W 123°00'0 0.0
2014-Apr-03 00:30N 49°09' W 123°00'  

Dump ship's entire track history

sailing weather and tide predictions

M. Luther — WDC7372 — position and weather